sensor_id;sensor_type;location;lat;lon;timestamp;pressure;altitude;pressure_sealevel;temperature;humidity
21111;BME280;10713;51.912;4.494;2022-12-29T00:01:31;99871.63;;;12.92;100.00
21111;BME280;10713;51.912;4.494;2022-12-29T00:03:57;99864.88;;;12.74;100.00
21111;BME280;10713;51.912;4.494;2022-12-29T00:06:22;99839.16;;;12.61;100.00
21111;BME280;10713;51.912;4.494;2022-12-29T00:08:48;99830.19;;;12.50;100.00
21111;BME280;10713;51.912;4.494;2022-12-29T00:11:16;99834.06;;;12.58;100.00
21111;BME280;10713;51.912;4.494;2022-12-29T00:13:42;99844.09;;;12.68;100.00
21111;BME280;10713;51.912;4.494;2022-12-29T00:16:27;99830.94;;;12.66;100.00
21111;BME280;10713;51.912;4.494;2022-12-29T00:18:53;99822.34;;;12.62;100.00
21111;BME280;10713;51.912;4.494;2022-12-29T00:21:21;99816.72;;;12.67;100.00
21111;BME280;10713;51.912;4.494;2022-12-29T00:24:05;99812.31;;;12.68;100.00
21111;BME280;10713;51.912;4.494;2022-12-29T00:29:47;99794.41;;;12.71;100.00
21111;BME280;10713;51.912;4.494;2022-12-29T00:32:32;99804.91;;;12.73;100.00
21111;BME280;10713;51.912;4.494;2022-12-29T00:35:38;99797.63;;;12.76;100.00
21111;BME280;10713;51.912;4.494;2022-12-29T00:38:07;99795.16;;;12.73;100.00
21111;BME280;10713;51.912;4.494;2022-12-29T00:40:51;99790.25;;;12.67;100.00
21111;BME280;10713;51.912;4.494;2022-12-29T00:43:35;99792.69;;;12.70;100.00
21111;BME280;10713;51.912;4.494;2022-12-29T00:46:19;99791.00;;;12.69;100.00
21111;BME280;10713;51.912;4.494;2022-12-29T00:48:44;99796.16;;;12.58;100.00
21111;BME280;10713;51.912;4.494;2022-12-29T00:51:28;99804.84;;;12.60;100.00
21111;BME280;10713;51.912;4.494;2022-12-29T00:53:54;99810.34;;;12.57;100.00
21111;BME280;10713;51.912;4.494;2022-12-29T00:56:19;99801.00;;;12.51;100.00
21111;BME280;10713;51.912;4.494;2022-12-29T00:58:45;99807.94;;;12.39;100.00
21111;BME280;10713;51.912;4.494;2022-12-29T01:01:10;99797.00;;;12.17;100.00
21111;BME280;10713;51.912;4.494;2022-12-29T01:03:36;99798.19;;;12.26;100.00
21111;BME280;10713;51.912;4.494;2022-12-29T01:06:04;99803.50;;;12.26;100.00
21111;BME280;10713;51.912;4.494;2022-12-29T01:08:30;99805.94;;;12.29;100.00
21111;BME280;10713;51.912;4.494;2022-12-29T01:11:07;99805.56;;;12.21;100.00
21111;BME280;10713;51.912;4.494;2022-12-29T01:13:34;99799.31;;;12.36;100.00
21111;BME280;10713;51.912;4.494;2022-12-29T01:15:59;99805.84;;;12.30;100.00
21111;BME280;10713;51.912;4.494;2022-12-29T01:18:25;99801.41;;;12.31;100.00
21111;BME280;10713;51.912;4.494;2022-12-29T01:20:51;99808.41;;;12.32;100.00
21111;BME280;10713;51.912;4.494;2022-12-29T01:23:22;99801.59;;;12.42;100.00
21111;BME280;10713;51.912;4.494;2022-12-29T01:25:48;99792.44;;;12.33;100.00
21111;BME280;10713;51.912;4.494;2022-12-29T01:28:13;99804.91;;;12.31;100.00
21111;BME280;10713;51.912;4.494;2022-12-29T01:30:39;99811.69;;;12.35;100.00
21111;BME280;10713;51.912;4.494;2022-12-29T01:33:04;99795.81;;;12.35;100.00
21111;BME280;10713;51.912;4.494;2022-12-29T01:35:29;99793.47;;;12.31;100.00
21111;BME280;10713;51.912;4.494;2022-12-29T01:37:55;99781.38;;;12.27;100.00
21111;BME280;10713;51.912;4.494;2022-12-29T01:40:20;99782.22;;;12.27;100.00
21111;BME280;10713;51.912;4.494;2022-12-29T01:42:46;99791.03;;;12.28;100.00
21111;BME280;10713;51.912;4.494;2022-12-29T01:45:13;99777.78;;;12.28;100.00
21111;BME280;10713;51.912;4.494;2022-12-29T01:47:42;99784.59;;;12.32;100.00
21111;BME280;10713;51.912;4.494;2022-12-29T01:50:19;99782.91;;;12.31;100.00
21111;BME280;10713;51.912;4.494;2022-12-29T01:53:00;99780.69;;;12.37;100.00
21111;BME280;10713;51.912;4.494;2022-12-29T01:55:31;99783.91;;;12.43;100.00
21111;BME280;10713;51.912;4.494;2022-12-29T01:58:00;99780.91;;;12.34;100.00
21111;BME280;10713;51.912;4.494;2022-12-29T02:00:29;99792.25;;;12.36;100.00
21111;BME280;10713;51.912;4.494;2022-12-29T02:02:54;99792.44;;;12.33;100.00
21111;BME280;10713;51.912;4.494;2022-12-29T02:05:36;99796.84;;;12.33;100.00
21111;BME280;10713;51.912;4.494;2022-12-29T02:08:03;99781.84;;;12.33;100.00
21111;BME280;10713;51.912;4.494;2022-12-29T02:10:31;99787.78;;;12.37;100.00
21111;BME280;10713;51.912;4.494;2022-12-29T02:12:58;99777.69;;;12.29;100.00
21111;BME280;10713;51.912;4.494;2022-12-29T02:15:36;99785.19;;;12.50;100.00
21111;BME280;10713;51.912;4.494;2022-12-29T02:21:05;99769.72;;;12.44;100.00
21111;BME280;10713;51.912;4.494;2022-12-29T02:24:09;99765.38;;;12.43;100.00
21111;BME280;10713;51.912;4.494;2022-12-29T02:32:31;99785.03;;;12.38;100.00
21111;BME280;10713;51.912;4.494;2022-12-29T02:37:41;99792.69;;;12.43;100.00
21111;BME280;10713;51.912;4.494;2022-12-29T02:42:51;99785.22;;;12.35;100.00
21111;BME280;10713;51.912;4.494;2022-12-29T02:47:57;99788.94;;;12.18;100.00
21111;BME280;10713;51.912;4.494;2022-12-29T02:50:34;99791.25;;;12.10;100.00
21111;BME280;10713;51.912;4.494;2022-12-29T02:53:05;99792.28;;;12.08;100.00
21111;BME280;10713;51.912;4.494;2022-12-29T02:55:31;99765.72;;;11.95;100.00
21111;BME280;10713;51.912;4.494;2022-12-29T02:58:16;99776.69;;;12.03;100.00
21111;BME280;10713;51.912;4.494;2022-12-29T03:01:02;99780.28;;;12.02;100.00
21111;BME280;10713;51.912;4.494;2022-12-29T03:08:45;99768.53;;;12.06;100.00
21111;BME280;10713;51.912;4.494;2022-12-29T03:11:14;99772.88;;;12.07;100.00
21111;BME280;10713;51.912;4.494;2022-12-29T03:14:08;99773.00;;;12.06;100.00
21111;BME280;10713;51.912;4.494;2022-12-29T03:17:07;99773.28;;;12.01;100.00
21111;BME280;10713;51.912;4.494;2022-12-29T03:19:37;99773.19;;;12.03;100.00
21111;BME280;10713;51.912;4.494;2022-12-29T03:22:13;99774.31;;;11.99;100.00
21111;BME280;10713;51.912;4.494;2022-12-29T03:25:42;99778.75;;;11.98;100.00
21111;BME280;10713;51.912;4.494;2022-12-29T03:27:45;99775.00;;;12.02;100.00
21111;BME280;10713;51.912;4.494;2022-12-29T03:30:12;99774.41;;;11.97;100.00
21111;BME280;10713;51.912;4.494;2022-12-29T03:32:51;99781.59;;;11.95;100.00
21111;BME280;10713;51.912;4.494;2022-12-29T03:35:20;99770.53;;;11.88;100.00
21111;BME280;10713;51.912;4.494;2022-12-29T03:37:55;99779.06;;;11.93;100.00
21111;BME280;10713;51.912;4.494;2022-12-29T03:40:24;99777.16;;;11.95;100.00
21111;BME280;10713;51.912;4.494;2022-12-29T03:42:52;99778.66;;;12.00;100.00
21111;BME280;10713;51.912;4.494;2022-12-29T03:45:18;99782.16;;;11.86;100.00
21111;BME280;10713;51.912;4.494;2022-12-29T03:47:44;99784.81;;;11.86;100.00
21111;BME280;10713;51.912;4.494;2022-12-29T03:50:12;99797.47;;;11.95;100.00
21111;BME280;10713;51.912;4.494;2022-12-29T03:52:37;99806.72;;;12.02;100.00
21111;BME280;10713;51.912;4.494;2022-12-29T03:55:03;99799.44;;;12.06;100.00
21111;BME280;10713;51.912;4.494;2022-12-29T03:57:29;99801.63;;;12.13;100.00
21111;BME280;10713;51.912;4.494;2022-12-29T03:59:55;99783.13;;;11.99;100.00
21111;BME280;10713;51.912;4.494;2022-12-29T04:02:20;99779.41;;;12.02;100.00
21111;BME280;10713;51.912;4.494;2022-12-29T04:04:45;99791.25;;;11.96;100.00
21111;BME280;10713;51.912;4.494;2022-12-29T04:07:11;99780.94;;;12.06;100.00
21111;BME280;10713;51.912;4.494;2022-12-29T04:09:36;99796.59;;;12.09;100.00
21111;BME280;10713;51.912;4.494;2022-12-29T04:12:02;99799.63;;;12.03;100.00
21111;BME280;10713;51.912;4.494;2022-12-29T04:14:27;99791.78;;;12.01;100.00
21111;BME280;10713;51.912;4.494;2022-12-29T04:16:52;99797.84;;;11.89;100.00
21111;BME280;10713;51.912;4.494;2022-12-29T04:19:18;99784.38;;;11.78;100.00
21111;BME280;10713;51.912;4.494;2022-12-29T04:21:43;99785.03;;;11.81;100.00
21111;BME280;10713;51.912;4.494;2022-12-29T04:24:08;99782.97;;;11.72;100.00
21111;BME280;10713;51.912;4.494;2022-12-29T04:26:34;99773.72;;;11.65;100.00
21111;BME280;10713;51.912;4.494;2022-12-29T04:28:59;99794.75;;;11.52;100.00
21111;BME280;10713;51.912;4.494;2022-12-29T04:31:24;99798.22;;;11.53;100.00
21111;BME280;10713;51.912;4.494;2022-12-29T04:33:50;99803.69;;;11.49;100.00
21111;BME280;10713;51.912;4.494;2022-12-29T04:36:15;99798.00;;;11.41;100.00
21111;BME280;10713;51.912;4.494;2022-12-29T04:38:41;99796.63;;;11.50;100.00
21111;BME280;10713;51.912;4.494;2022-12-29T04:41:06;99788.41;;;11.55;100.00
21111;BME280;10713;51.912;4.494;2022-12-29T04:43:31;99797.19;;;11.55;100.00
21111;BME280;10713;51.912;4.494;2022-12-29T04:45:57;99812.50;;;11.64;100.00
21111;BME280;10713;51.912;4.494;2022-12-29T04:48:22;99814.22;;;11.65;100.00
21111;BME280;10713;51.912;4.494;2022-12-29T04:50:49;99810.53;;;11.68;100.00
21111;BME280;10713;51.912;4.494;2022-12-29T04:53:16;99811.94;;;11.59;100.00
21111;BME280;10713;51.912;4.494;2022-12-29T04:55:41;99831.69;;;11.68;100.00
21111;BME280;10713;51.912;4.494;2022-12-29T04:58:07;99814.22;;;11.65;100.00
21111;BME280;10713;51.912;4.494;2022-12-29T05:00:32;99820.16;;;11.69;100.00
21111;BME280;10713;51.912;4.494;2022-12-29T05:02:58;99817.72;;;11.66;100.00
21111;BME280;10713;51.912;4.494;2022-12-29T05:05:23;99823.84;;;11.66;100.00
21111;BME280;10713;51.912;4.494;2022-12-29T05:07:49;99824.88;;;11.64;100.00
21111;BME280;10713;51.912;4.494;2022-12-29T05:10:14;99824.03;;;11.63;100.00
21111;BME280;10713;51.912;4.494;2022-12-29T05:12:39;99826.00;;;11.60;100.00
21111;BME280;10713;51.912;4.494;2022-12-29T05:15:06;99839.31;;;11.58;100.00
21111;BME280;10713;51.912;4.494;2022-12-29T05:17:32;99843.75;;;11.58;100.00
21111;BME280;10713;51.912;4.494;2022-12-29T05:19:58;99841.88;;;11.60;100.00
21111;BME280;10713;51.912;4.494;2022-12-29T05:22:23;99845.81;;;11.53;100.00
21111;BME280;10713;51.912;4.494;2022-12-29T05:24:49;99838.19;;;11.62;100.00
21111;BME280;10713;51.912;4.494;2022-12-29T05:27:14;99845.09;;;11.65;100.00
21111;BME280;10713;51.912;4.494;2022-12-29T05:29:40;99847.94;;;11.62;100.00
21111;BME280;10713;51.912;4.494;2022-12-29T05:32:05;99842.72;;;11.60;100.00
21111;BME280;10713;51.912;4.494;2022-12-29T05:34:30;99849.28;;;11.53;100.00
21111;BME280;10713;51.912;4.494;2022-12-29T05:36:56;99854.13;;;11.61;100.00
21111;BME280;10713;51.912;4.494;2022-12-29T05:39:21;99844.41;;;11.61;100.00
21111;BME280;10713;51.912;4.494;2022-12-29T05:41:46;99853.72;;;11.53;100.00
21111;BME280;10713;51.912;4.494;2022-12-29T05:44:12;99840.81;;;11.48;100.00
21111;BME280;10713;51.912;4.494;2022-12-29T05:46:37;99841.47;;;11.52;100.00
21111;BME280;10713;51.912;4.494;2022-12-29T05:49:04;99849.28;;;11.53;100.00
21111;BME280;10713;51.912;4.494;2022-12-29T05:51:30;99848.56;;;11.51;100.00
21111;BME280;10713;51.912;4.494;2022-12-29T05:53:55;99846.56;;;11.55;100.00
21111;BME280;10713;51.912;4.494;2022-12-29T05:56:21;99858.75;;;11.57;100.00
21111;BME280;10713;51.912;4.494;2022-12-29T05:58:46;99876.19;;;11.45;100.00
21111;BME280;10713;51.912;4.494;2022-12-29T06:01:11;99862.34;;;11.26;100.00
21111;BME280;10713;51.912;4.494;2022-12-29T06:03:37;99876.44;;;11.41;100.00
21111;BME280;10713;51.912;4.494;2022-12-29T06:06:02;99865.75;;;11.28;100.00
21111;BME280;10713;51.912;4.494;2022-12-29T06:08:28;99874.78;;;11.24;100.00
21111;BME280;10713;51.912;4.494;2022-12-29T06:10:53;99861.50;;;11.25;100.00
21111;BME280;10713;51.912;4.494;2022-12-29T06:13:19;99874.47;;;11.14;100.00
21111;BME280;10713;51.912;4.494;2022-12-29T06:15:44;99862.28;;;11.12;100.00
21111;BME280;10713;51.912;4.494;2022-12-29T06:18:09;99868.22;;;11.15;100.00
21111;BME280;10713;51.912;4.494;2022-12-29T06:20:35;99870.00;;;11.31;100.00
21111;BME280;10713;51.912;4.494;2022-12-29T06:23:00;99870.94;;;11.30;100.00
21111;BME280;10713;51.912;4.494;2022-12-29T06:25:26;99866.59;;;11.28;100.00
21111;BME280;10713;51.912;4.494;2022-12-29T06:27:51;99872.00;;;11.41;100.00
21111;BME280;10713;51.912;4.494;2022-12-29T06:30:16;99864.44;;;11.35;100.00
21111;BME280;10713;51.912;4.494;2022-12-29T06:32:42;99865.75;;;11.28;100.00
21111;BME280;10713;51.912;4.494;2022-12-29T06:35:08;99865.47;;;11.33;100.00
21111;BME280;10713;51.912;4.494;2022-12-29T06:37:34;99859.47;;;11.15;100.00
21111;BME280;10713;51.912;4.494;2022-12-29T06:39:59;99858.38;;;11.03;100.00
21111;BME280;10713;51.912;4.494;2022-12-29T06:42:25;99871.75;;;11.00;100.00
21111;BME280;10713;51.912;4.494;2022-12-29T06:44:50;99873.88;;;10.93;100.00
21111;BME280;10713;51.912;4.494;2022-12-29T06:47:16;99870.66;;;10.88;100.00
21111;BME280;10713;51.912;4.494;2022-12-29T06:49:41;99883.31;;;10.81;100.00
21111;BME280;10713;51.912;4.494;2022-12-29T06:52:06;99878.31;;;10.77;100.00
21111;BME280;10713;51.912;4.494;2022-12-29T06:54:32;99873.03;;;10.77;100.00
21111;BME280;10713;51.912;4.494;2022-12-29T06:56:57;99880.69;;;10.66;100.00
21111;BME280;10713;51.912;4.494;2022-12-29T06:59:23;99881.09;;;10.58;100.00
21111;BME280;10713;51.912;4.494;2022-12-29T07:01:49;99882.81;;;10.59;100.00
21111;BME280;10713;51.912;4.494;2022-12-29T07:04:15;99890.97;;;10.54;100.00
21111;BME280;10713;51.912;4.494;2022-12-29T07:06:40;99881.28;;;10.55;100.00
21111;BME280;10713;51.912;4.494;2022-12-29T07:09:07;99882.38;;;10.51;100.00
21111;BME280;10713;51.912;4.494;2022-12-29T07:11:32;99895.41;;;10.54;100.00
21111;BME280;10713;51.912;4.494;2022-12-29T07:13:58;99889.69;;;10.46;100.00
21111;BME280;10713;51.912;4.494;2022-12-29T07:16:24;99893.00;;;10.49;100.00
21111;BME280;10713;51.912;4.494;2022-12-29T07:18:49;99889.19;;;10.55;100.00
21111;BME280;10713;51.912;4.494;2022-12-29T07:21:15;99889.78;;;10.60;100.00
21111;BME280;10713;51.912;4.494;2022-12-29T07:23:40;99896.97;;;10.74;100.00
21111;BME280;10713;51.912;4.494;2022-12-29T07:26:08;99897.63;;;10.77;100.00
21111;BME280;10713;51.912;4.494;2022-12-29T07:28:35;99894.06;;;10.78;100.00
21111;BME280;10713;51.912;4.494;2022-12-29T07:31:00;99897.63;;;10.77;100.00
21111;BME280;10713;51.912;4.494;2022-12-29T07:33:28;99899.59;;;10.90;100.00
21111;BME280;10713;51.912;4.494;2022-12-29T07:35:53;99891.84;;;10.87;100.00
21111;BME280;10713;51.912;4.494;2022-12-29T07:38:19;99887.34;;;10.89;100.00
21111;BME280;10713;51.912;4.494;2022-12-29T07:40:44;99889.81;;;10.92;100.00
21111;BME280;10713;51.912;4.494;2022-12-29T07:43:09;99883.34;;;10.97;100.00
21111;BME280;10713;51.912;4.494;2022-12-29T07:45:35;99899.34;;;10.94;100.00
21111;BME280;10713;51.912;4.494;2022-12-29T07:48:00;99884.94;;;11.00;100.00
21111;BME280;10713;51.912;4.494;2022-12-29T07:50:27;99902.75;;;10.96;100.00
21111;BME280;10713;51.912;4.494;2022-12-29T07:52:53;99902.75;;;10.96;100.00
21111;BME280;10713;51.912;4.494;2022-12-29T07:55:18;99896.78;;;11.09;100.00
21111;BME280;10713;51.912;4.494;2022-12-29T07:57:44;99898.47;;;11.10;100.00
21111;BME280;10713;51.912;4.494;2022-12-29T08:00:09;99893.97;;;11.12;100.00
21111;BME280;10713;51.912;4.494;2022-12-29T08:02:35;99895.41;;;11.17;100.00
21111;BME280;10713;51.912;4.494;2022-12-29T08:05:01;99884.34;;;11.11;100.00
21111;BME280;10713;51.912;4.494;2022-12-29T08:07:26;99880.34;;;11.19;100.00
21111;BME280;10713;51.912;4.494;2022-12-29T08:09:52;99896.00;;;11.22;100.00
21111;BME280;10713;51.912;4.494;2022-12-29T08:12:17;99903.94;;;11.22;100.00
21111;BME280;10713;51.912;4.494;2022-12-29T08:14:43;99906.22;;;11.28;100.00
21111;BME280;10713;51.912;4.494;2022-12-29T08:17:08;99900.84;;;11.30;100.00
21111;BME280;10713;51.912;4.494;2022-12-29T08:19:33;99915.31;;;11.39;100.00
21111;BME280;10713;51.912;4.494;2022-12-29T08:21:59;99913.72;;;11.36;100.00
21111;BME280;10713;51.912;4.494;2022-12-29T08:24:24;99903.22;;;11.35;100.00
21111;BME280;10713;51.912;4.494;2022-12-29T08:26:49;99918.72;;;11.41;100.00
21111;BME280;10713;51.912;4.494;2022-12-29T08:29:15;99901.72;;;11.31;100.00
21111;BME280;10713;51.912;4.494;2022-12-29T08:31:40;99934.25;;;11.31;100.00
21111;BME280;10713;51.912;4.494;2022-12-29T08:34:07;99959.66;;;11.34;100.00
21111;BME280;10713;51.912;4.494;2022-12-29T08:36:32;99950.88;;;11.17;100.00
21111;BME280;10713;51.912;4.494;2022-12-29T08:38:58;99943.72;;;11.19;100.00
21111;BME280;10713;51.912;4.494;2022-12-29T08:41:23;99945.19;;;11.09;100.00
21111;BME280;10713;51.912;4.494;2022-12-29T08:43:49;99958.63;;;11.20;100.00
21111;BME280;10713;51.912;4.494;2022-12-29T08:46:15;99954.53;;;11.15;100.00
21111;BME280;10713;51.912;4.494;2022-12-29T08:48:41;99967.94;;;11.12;100.00
21111;BME280;10713;51.912;4.494;2022-12-29T08:51:06;99982.50;;;11.03;100.00
21111;BME280;10713;51.912;4.494;2022-12-29T08:53:33;99980.78;;;11.02;100.00
21111;BME280;10713;51.912;4.494;2022-12-29T08:55:59;99993.13;;;11.01;100.00
21111;BME280;10713;51.912;4.494;2022-12-29T08:58:26;99989.03;;;10.96;100.00
21111;BME280;10713;51.912;4.494;2022-12-29T09:00:55;99979.13;;;10.83;100.00
21111;BME280;10713;51.912;4.494;2022-12-29T09:03:22;99991.50;;;10.83;100.00
21111;BME280;10713;51.912;4.494;2022-12-29T09:05:49;100007.28;;;10.85;100.00
21111;BME280;10713;51.912;4.494;2022-12-29T09:08:15;99994.91;;;10.85;100.00
21111;BME280;10713;51.912;4.494;2022-12-29T09:10:40;100005.91;;;10.93;100.00
21111;BME280;10713;51.912;4.494;2022-12-29T09:13:06;100006.66;;;10.95;100.00
21111;BME280;10713;51.912;4.494;2022-12-29T09:15:31;100006.00;;;10.92;100.00
21111;BME280;10713;51.912;4.494;2022-12-29T09:17:56;100006.66;;;10.95;100.00
21111;BME280;10713;51.912;4.494;2022-12-29T09:20:22;100020.72;;;10.96;100.00
21111;BME280;10713;51.912;4.494;2022-12-29T09:22:48;100024.97;;;10.98;100.00
21111;BME280;10713;51.912;4.494;2022-12-29T09:25:13;100022.16;;;11.01;100.00
21111;BME280;10713;51.912;4.494;2022-12-29T09:27:39;100006.94;;;11.07;100.00
21111;BME280;10713;51.912;4.494;2022-12-29T09:30:07;100038.06;;;11.17;100.00
21111;BME280;10713;51.912;4.494;2022-12-29T09:32:34;100042.50;;;11.17;100.00
21111;BME280;10713;51.912;4.494;2022-12-29T09:34:59;100044.88;;;11.21;100.00
21111;BME280;10713;51.912;4.494;2022-12-29T09:37:24;100041.13;;;11.25;100.00
21111;BME280;10713;51.912;4.494;2022-12-29T09:39:50;100061.50;;;11.23;100.00
21111;BME280;10713;51.912;4.494;2022-12-29T09:42:32;100063.53;;;11.18;100.00
21111;BME280;10713;51.912;4.494;2022-12-29T09:45:20;100071.63;;;11.15;100.00
21111;BME280;10713;51.912;4.494;2022-12-29T09:47:49;100074.44;;;11.12;100.00
21111;BME280;10713;51.912;4.494;2022-12-29T09:50:32;100081.25;;;11.16;100.00
21111;BME280;10713;51.912;4.494;2022-12-29T09:53:09;100095.06;;;11.21;100.00
21111;BME280;10713;51.912;4.494;2022-12-29T09:55:45;100082.56;;;11.25;100.00
21111;BME280;10713;51.912;4.494;2022-12-29T10:01:06;100096.00;;;11.20;100.00
21111;BME280;10713;51.912;4.494;2022-12-29T10:03:47;100090.53;;;12.34;100.00
21111;BME280;10713;51.912;4.494;2022-12-29T10:14:08;100101.19;;;12.63;100.00
21111;BME280;10713;51.912;4.494;2022-12-29T10:16:56;100100.06;;;12.81;100.00
21111;BME280;10713;51.912;4.494;2022-12-29T10:24:34;100134.25;;;11.78;100.00
21111;BME280;10713;51.912;4.494;2022-12-29T10:27:03;100148.22;;;11.48;100.00
21111;BME280;10713;51.912;4.494;2022-12-29T10:29:49;100157.66;;;11.86;100.00
21111;BME280;10713;51.912;4.494;2022-12-29T10:32:36;100151.50;;;12.01;100.00
21111;BME280;10713;51.912;4.494;2022-12-29T10:38:12;100159.22;;;12.36;100.00
21111;BME280;10713;51.912;4.494;2022-12-29T10:40:53;100159.94;;;12.24;100.00
21111;BME280;10713;51.912;4.494;2022-12-29T10:43:24;100152.72;;;12.11;100.00
21111;BME280;10713;51.912;4.494;2022-12-29T10:45:51;100170.72;;;12.05;100.00
21111;BME280;10713;51.912;4.494;2022-12-29T10:48:22;100170.31;;;11.97;100.00
21111;BME280;10713;51.912;4.494;2022-12-29T10:50:50;100171.09;;;11.81;100.00
21111;BME280;10713;51.912;4.494;2022-12-29T10:53:23;100184.41;;;11.80;100.00
21111;BME280;10713;51.912;4.494;2022-12-29T10:55:52;100185.94;;;11.84;100.00
21111;BME280;10713;51.912;4.494;2022-12-29T10:58:19;100195.25;;;11.75;100.00
21111;BME280;10713;51.912;4.494;2022-12-29T11:00:53;100193.59;;;11.72;100.00
21111;BME280;10713;51.912;4.494;2022-12-29T11:06:07;100210.22;;;11.92;100.00
21111;BME280;10713;51.912;4.494;2022-12-29T11:08:37;100219.44;;;12.01;100.00
21111;BME280;10713;51.912;4.494;2022-12-29T11:11:09;100214.25;;;11.99;100.00
21111;BME280;10713;51.912;4.494;2022-12-29T11:13:49;100223.22;;;11.97;100.00
21111;BME280;10713;51.912;4.494;2022-12-29T11:16:27;100234.38;;;12.02;100.00
21111;BME280;10713;51.912;4.494;2022-12-29T11:18:52;100226.19;;;12.06;100.00
21111;BME280;10713;51.912;4.494;2022-12-29T11:23:57;100228.66;;;12.57;100.00
21111;BME280;10713;51.912;4.494;2022-12-29T11:26:24;100225.53;;;12.65;100.00
21111;BME280;10713;51.912;4.494;2022-12-29T11:29:17;100228.03;;;12.68;100.00
21111;BME280;10713;51.912;4.494;2022-12-29T11:31:47;100236.81;;;12.68;100.00
21111;BME280;10713;51.912;4.494;2022-12-29T11:34:18;100234.34;;;12.65;100.00
21111;BME280;10713;51.912;4.494;2022-12-29T11:36:44;100244.78;;;12.68;100.00
21111;BME280;10713;51.912;4.494;2022-12-29T11:39:28;100232.09;;;12.73;100.00
21111;BME280;10713;51.912;4.494;2022-12-29T11:41:54;100245.00;;;12.79;100.00
21111;BME280;10713;51.912;4.494;2022-12-29T11:44:20;100232.72;;;12.93;100.00
21111;BME280;10713;51.912;4.494;2022-12-29T11:46:48;100245.13;;;12.92;100.00
21111;BME280;10713;51.912;4.494;2022-12-29T11:49:23;100250.53;;;12.91;100.00
21111;BME280;10713;51.912;4.494;2022-12-29T11:51:51;100228.09;;;12.82;100.00
21111;BME280;10713;51.912;4.494;2022-12-29T11:54:25;100234.50;;;12.78;100.00
21111;BME280;10713;51.912;4.494;2022-12-29T11:56:53;100249.41;;;12.79;100.00
21111;BME280;10713;51.912;4.494;2022-12-29T12:02:01;100242.06;;;12.84;100.00
21111;BME280;10713;51.912;4.494;2022-12-29T12:04:35;100255.53;;;12.95;100.00
21111;BME280;10713;51.912;4.494;2022-12-29T12:07:12;100240.84;;;12.90;100.00
21111;BME280;10713;51.912;4.494;2022-12-29T12:09:46;100235.16;;;12.81;100.00
21111;BME280;10713;51.912;4.494;2022-12-29T12:12:24;100236.94;;;12.81;100.00
21111;BME280;10713;51.912;4.494;2022-12-29T12:14:56;100257.53;;;12.76;100.00
21111;BME280;10713;51.912;4.494;2022-12-29T12:20:56;100250.13;;;12.82;100.00
21111;BME280;10713;51.912;4.494;2022-12-29T12:23:32;100258.31;;;12.78;100.00
21111;BME280;10713;51.912;4.494;2022-12-29T12:28:49;100259.59;;;12.87;100.00
21111;BME280;10713;51.912;4.494;2022-12-29T12:34:06;100269.16;;;12.89;100.00
21111;BME280;10713;51.912;4.494;2022-12-29T12:49:02;100267.50;;;13.02;100.00
21111;BME280;10713;51.912;4.494;2022-12-29T12:54:15;100275.50;;;13.17;100.00
21111;BME280;10713;51.912;4.494;2022-12-29T12:59:51;100279.63;;;13.06;100.00
21111;BME280;10713;51.912;4.494;2022-12-29T13:02:36;100276.00;;;13.07;100.00
21111;BME280;10713;51.912;4.494;2022-12-29T13:08:03;100280.47;;;13.07;100.00
21111;BME280;10713;51.912;4.494;2022-12-29T13:11:10;100279.63;;;13.06;100.00
21111;BME280;10713;51.912;4.494;2022-12-29T13:14:05;100273.84;;;13.00;100.00
21111;BME280;10713;51.912;4.494;2022-12-29T13:19:41;100272.41;;;12.94;100.00
21111;BME280;10713;51.912;4.494;2022-12-29T13:30:23;100288.69;;;12.40;100.00
21111;BME280;10713;51.912;4.494;2022-12-29T13:38:42;100297.97;;;12.16;100.00
21111;BME280;10713;51.912;4.494;2022-12-29T13:41:12;100310.44;;;12.14;100.00
21111;BME280;10713;51.912;4.494;2022-12-29T13:43:42;100310.34;;;12.15;100.00
21111;BME280;10713;51.912;4.494;2022-12-29T13:46:16;100308.81;;;12.11;100.00
21111;BME280;10713;51.912;4.494;2022-12-29T13:48:47;100308.97;;;12.24;100.00
21111;BME280;10713;51.912;4.494;2022-12-29T13:51:15;100302.22;;;12.18;100.00
21111;BME280;10713;51.912;4.494;2022-12-29T13:53:59;100297.38;;;12.27;100.00
21111;BME280;10713;51.912;4.494;2022-12-29T13:56:35;100296.69;;;12.23;100.00
21111;BME280;10713;51.912;4.494;2022-12-29T13:59:11;100296.63;;;12.25;100.00
21111;BME280;10713;51.912;4.494;2022-12-29T14:01:48;100291.00;;;12.31;100.00
21111;BME280;10713;51.912;4.494;2022-12-29T14:04:24;100302.94;;;12.22;100.00
21111;BME280;10713;51.912;4.494;2022-12-29T14:07:02;100296.94;;;12.18;100.00
21111;BME280;10713;51.912;4.494;2022-12-29T14:09:47;100292.19;;;12.25;100.00
21111;BME280;10713;51.912;4.494;2022-12-29T14:14:48;100303.97;;;12.20;100.00
21111;BME280;10713;51.912;4.494;2022-12-29T14:17:19;100304.97;;;12.17;100.00
21111;BME280;10713;51.912;4.494;2022-12-29T14:19:45;100298.22;;;12.11;100.00
21111;BME280;10713;51.912;4.494;2022-12-29T14:22:11;100307.00;;;12.12;100.00
21111;BME280;10713;51.912;4.494;2022-12-29T14:34:50;100324.97;;;12.23;100.00
21111;BME280;10713;51.912;4.494;2022-12-29T14:40:06;100312.91;;;12.33;100.00
21111;BME280;10713;51.912;4.494;2022-12-29T14:42:39;100313.53;;;12.38;100.00
21111;BME280;10713;51.912;4.494;2022-12-29T14:50:15;100322.31;;;12.70;100.00
21111;BME280;10713;51.912;4.494;2022-12-29T14:57:49;100338.19;;;12.86;100.00
21111;BME280;10713;51.912;4.494;2022-12-29T15:00:23;100333.31;;;12.94;100.00
21111;BME280;10713;51.912;4.494;2022-12-29T15:03:00;100348.09;;;12.98;100.00
21111;BME280;10713;51.912;4.494;2022-12-29T15:05:32;100344.69;;;12.96;100.00